createdAt,value
2023-02-23T00:00:32.036Z,2.40
2023-02-23T00:03:01.299Z,2.30
2023-02-23T00:05:29.520Z,2.50
2023-02-23T00:07:56.492Z,2.50
2023-02-23T00:10:30.175Z,2.40
2023-02-23T00:12:58.721Z,2.50
2023-02-23T00:15:26.949Z,2.60
2023-02-23T00:17:55.575Z,2.60
2023-02-23T00:20:27.758Z,2.40
2023-02-23T00:22:55.392Z,2.50
2023-02-23T00:25:22.727Z,2.60
2023-02-23T00:27:49.794Z,2.40
2023-02-23T00:30:20.215Z,2.40
2023-02-23T00:32:46.998Z,2.40
2023-02-23T00:35:19.683Z,2.40
2023-02-23T00:37:47.541Z,2.40
2023-02-23T00:40:16.619Z,2.40
2023-02-23T00:42:44.244Z,2.40
2023-02-23T00:45:12.556Z,2.30
2023-02-23T00:47:40.676Z,2.30
2023-02-23T00:50:07.828Z,2.30
2023-02-23T00:52:34.477Z,2.30
2023-02-23T00:55:01.168Z,2.20
2023-02-23T00:57:27.803Z,2.20
2023-02-23T00:59:54.539Z,2.20
2023-02-23T01:02:21.327Z,2.30
2023-02-23T01:04:47.990Z,2.30
2023-02-23T01:07:14.767Z,2.40
2023-02-23T01:09:41.388Z,2.60
2023-02-23T01:12:08.094Z,2.40
2023-02-23T01:14:35.681Z,2.20
2023-02-23T01:17:02.428Z,2.10
2023-02-23T01:19:29.146Z,2.10
2023-02-23T01:21:55.807Z,2.10
2023-02-23T01:24:22.464Z,2.20
2023-02-23T01:26:49.130Z,2.30
2023-02-23T01:29:16.803Z,2.20
2023-02-23T01:31:45.059Z,2.00
2023-02-23T01:34:12.740Z,2.10
2023-02-23T01:36:40.689Z,2.00
2023-02-23T01:39:08.085Z,2.00
2023-02-23T01:41:35.959Z,1.80
2023-02-23T01:44:14.504Z,1.80
2023-02-23T01:46:43.087Z,1.70
2023-02-23T01:49:27.886Z,1.70
2023-02-23T01:51:57.561Z,1.90
2023-02-23T01:54:31.071Z,1.80
2023-02-23T01:57:00.162Z,1.50
2023-02-23T01:59:53.739Z,1.60
2023-02-23T02:02:23.166Z,1.70
2023-02-23T02:04:52.206Z,1.70
2023-02-23T02:07:23.577Z,1.70
2023-02-23T02:10:11.155Z,1.90
2023-02-23T02:12:39.263Z,1.90
2023-02-23T02:15:07.947Z,1.80
2023-02-23T02:17:51.345Z,1.90
2023-02-23T02:20:33.289Z,1.30
2023-02-23T02:23:18.856Z,1.60
2023-02-23T02:26:04.288Z,1.40
2023-02-23T02:28:39.969Z,1.60
2023-02-23T02:31:13.246Z,1.40
2023-02-23T02:33:58.359Z,1.40
2023-02-23T02:36:49.964Z,1.40
2023-02-23T02:39:34.864Z,1.40
2023-02-23T02:42:02.609Z,1.40
2023-02-23T02:44:49.718Z,1.40
2023-02-23T02:47:19.600Z,1.20
2023-02-23T02:49:49.222Z,1.40
2023-02-23T02:52:19.416Z,1.30
2023-02-23T02:54:53.404Z,1.30
2023-02-23T02:57:22.647Z,1.30
2023-02-23T03:00:08.800Z,1.50
2023-02-23T03:02:55.235Z,1.50
2023-02-23T03:05:42.802Z,1.50
2023-02-23T03:08:31.659Z,1.50
2023-02-23T03:11:28.499Z,1.40
2023-02-23T03:14:32.426Z,1.20
2023-02-23T03:17:38.568Z,1.10
2023-02-23T03:20:27.298Z,1.00
2023-02-23T03:23:15.161Z,0.80
2023-02-23T03:26:06.424Z,1.10
2023-02-23T03:28:54.957Z,1.30
2023-02-23T03:31:46.477Z,1.50
2023-02-23T03:34:48.590Z,1.00
2023-02-23T03:37:56.976Z,1.10
2023-02-23T03:40:44.458Z,1.10
2023-02-23T03:43:36.712Z,0.90
2023-02-23T03:46:23.399Z,1.30
2023-02-23T03:49:09.019Z,1.10
2023-02-23T03:51:55.678Z,1.10
2023-02-23T03:54:46.604Z,0.80
2023-02-23T03:57:32.792Z,1.00
2023-02-23T04:00:20.053Z,1.00
2023-02-23T04:03:08.079Z,1.10
2023-02-23T04:05:54.587Z,1.00
2023-02-23T04:08:39.900Z,0.90
2023-02-23T04:11:28.206Z,1.20
2023-02-23T04:13:58.578Z,1.10
2023-02-23T04:16:25.269Z,0.90
2023-02-23T04:18:51.953Z,0.90
2023-02-23T04:21:18.795Z,0.80
2023-02-23T04:23:45.679Z,1.00
2023-02-23T04:26:12.325Z,0.60
2023-02-23T04:28:39.005Z,0.60
2023-02-23T04:31:05.749Z,0.70
2023-02-23T04:33:32.434Z,0.80
2023-02-23T04:35:59.145Z,0.80
2023-02-23T04:38:25.796Z,1.00
2023-02-23T04:40:52.489Z,1.10
2023-02-23T04:43:19.184Z,0.70
2023-02-23T04:45:46.172Z,0.60
2023-02-23T04:48:12.871Z,0.90
2023-02-23T04:50:39.734Z,0.90
2023-02-23T04:53:06.583Z,0.50
2023-02-23T04:55:33.564Z,0.60
2023-02-23T04:58:01.021Z,0.90
2023-02-23T05:00:29.444Z,0.80
2023-02-23T05:02:56.532Z,0.80
2023-02-23T05:05:23.302Z,0.80
2023-02-23T05:07:50.089Z,0.80
2023-02-23T05:10:16.843Z,0.70
2023-02-23T05:12:43.622Z,0.80
2023-02-23T05:15:11.133Z,0.70
2023-02-23T05:17:38.703Z,0.80
2023-02-23T05:20:05.753Z,0.60
2023-02-23T05:22:32.409Z,0.50
2023-02-23T05:24:59.069Z,0.70
2023-02-23T05:27:25.737Z,0.70
2023-02-23T05:29:52.370Z,0.70
2023-02-23T05:32:19.130Z,0.70
2023-02-23T05:34:45.800Z,0.60
2023-02-23T05:37:12.454Z,0.80
2023-02-23T05:39:39.800Z,0.90
2023-02-23T05:42:06.449Z,0.90
2023-02-23T05:44:33.092Z,1.00
2023-02-23T05:46:59.996Z,0.80
2023-02-23T05:49:26.709Z,0.80
2023-02-23T05:51:53.472Z,0.80
2023-02-23T05:54:20.113Z,0.60
2023-02-23T05:56:46.764Z,0.60
2023-02-23T05:59:13.472Z,0.70
2023-02-23T06:01:40.519Z,0.60
2023-02-23T06:04:07.215Z,0.80
2023-02-23T06:06:33.997Z,0.70
2023-02-23T06:09:01.364Z,0.50
2023-02-23T06:11:28.138Z,0.50
2023-02-23T06:13:55.278Z,0.80
2023-02-23T06:16:22.076Z,0.90
2023-02-23T06:18:48.791Z,0.60
2023-02-23T06:21:15.547Z,0.70
2023-02-23T06:23:42.188Z,0.80
2023-02-23T06:26:09.358Z,1.00
2023-02-23T06:28:36.502Z,0.90
2023-02-23T06:31:03.399Z,1.00
2023-02-23T06:33:30.121Z,1.20
2023-02-23T06:35:56.767Z,1.30
2023-02-23T06:38:24.041Z,1.10
2023-02-23T06:40:50.781Z,1.20
2023-02-23T06:43:17.447Z,1.20
2023-02-23T06:45:44.119Z,0.90
2023-02-23T06:48:10.883Z,1.10
2023-02-23T06:50:37.668Z,1.10
2023-02-23T06:53:05.044Z,1.20
2023-02-23T06:55:32.635Z,1.20
2023-02-23T06:57:59.335Z,1.40
2023-02-23T07:00:26.088Z,1.50
2023-02-23T07:02:52.858Z,1.80
2023-02-23T07:05:19.653Z,1.70
2023-02-23T07:07:46.608Z,1.60
2023-02-23T07:10:13.439Z,1.50
2023-02-23T07:12:40.190Z,1.50
2023-02-23T07:15:07.268Z,1.70
2023-02-23T07:17:33.918Z,1.70
2023-02-23T07:20:00.557Z,1.80
2023-02-23T07:22:30.245Z,1.90
2023-02-23T07:24:57.480Z,2.00
2023-02-23T07:27:24.522Z,2.20
2023-02-23T07:29:51.188Z,2.40
2023-02-23T07:32:17.957Z,2.30
2023-02-23T07:34:45.930Z,2.50
2023-02-23T07:37:12.647Z,3.00
2023-02-23T07:39:39.293Z,3.40
2023-02-23T07:42:05.988Z,3.20
2023-02-23T07:44:44.691Z,3.10
2023-02-23T07:47:11.684Z,3.40
2023-02-23T07:49:38.342Z,3.50
2023-02-23T07:52:05.042Z,3.50
2023-02-23T07:54:31.753Z,3.60
2023-02-23T07:56:59.289Z,3.80
2023-02-23T07:59:25.998Z,3.90
2023-02-23T08:01:52.703Z,3.90
2023-02-23T08:04:19.591Z,4.00
2023-02-23T08:06:46.397Z,4.10
2023-02-23T08:09:13.110Z,4.30
2023-02-23T08:11:40.533Z,4.40
2023-02-23T08:14:07.228Z,4.40
2023-02-23T08:16:34.162Z,4.60
2023-02-23T08:19:00.867Z,4.70
2023-02-23T08:21:29.459Z,4.80
2023-02-23T08:23:57.076Z,4.90
2023-02-23T08:26:25.424Z,5.10
2023-02-23T08:28:52.792Z,5.30
2023-02-23T08:31:22.334Z,5.20
2023-02-23T08:33:49.509Z,5.30
2023-02-23T08:36:16.206Z,5.50
2023-02-23T08:38:42.960Z,5.70
2023-02-23T08:41:09.653Z,5.80
2023-02-23T08:43:36.412Z,5.90
2023-02-23T08:46:03.121Z,6.40
2023-02-23T08:48:29.833Z,6.70
2023-02-23T08:50:57.240Z,6.80
2023-02-23T08:53:25.687Z,6.90
2023-02-23T08:56:10.662Z,7.10
2023-02-23T08:58:37.285Z,7.10
2023-02-23T09:01:04.453Z,7.20
2023-02-23T09:03:31.747Z,7.40
2023-02-23T09:06:04.441Z,7.50
2023-02-23T09:08:31.104Z,7.50
2023-02-23T09:10:57.774Z,7.60
2023-02-23T09:13:24.408Z,7.60
2023-02-23T09:15:51.128Z,7.70
2023-02-23T09:18:18.464Z,7.70
2023-02-23T09:20:45.496Z,7.90
2023-02-23T09:23:13.146Z,8.00
2023-02-23T09:25:43.344Z,8.00
2023-02-23T09:28:17.013Z,8.00
2023-02-23T09:30:44.360Z,8.10
2023-02-23T09:33:11.401Z,8.10
2023-02-23T09:35:38.225Z,8.10
2023-02-23T09:38:06.441Z,8.10
2023-02-23T09:40:49.742Z,8.20
2023-02-23T09:43:22.125Z,8.30
2023-02-23T09:46:00.730Z,8.20
2023-02-23T09:48:28.399Z,8.20
2023-02-23T09:50:57.290Z,8.20
2023-02-23T09:53:42.871Z,8.20
2023-02-23T09:56:18.988Z,8.20
2023-02-23T09:58:45.648Z,8.20
2023-02-23T10:01:30.711Z,8.20
2023-02-23T10:04:16.236Z,8.10
2023-02-23T10:06:45.191Z,8.10
2023-02-23T10:09:11.815Z,8.00
2023-02-23T10:11:42.092Z,8.00
2023-02-23T10:14:23.120Z,8.00
2023-02-23T10:16:52.769Z,7.90
2023-02-23T10:19:27.784Z,7.90
2023-02-23T10:21:56.627Z,7.90
2023-02-23T10:24:37.462Z,7.90
2023-02-23T10:27:07.132Z,7.90
2023-02-23T10:29:36.805Z,7.80
2023-02-23T10:32:12.396Z,7.90
2023-02-23T10:34:40.100Z,7.80
2023-02-23T10:37:07.210Z,7.80
2023-02-23T10:39:34.588Z,7.90
2023-02-23T10:42:06.407Z,7.80
2023-02-23T10:44:33.268Z,7.90
2023-02-23T10:47:01.656Z,8.00
2023-02-23T10:49:43.647Z,8.00
2023-02-23T10:52:15.637Z,8.10
2023-02-23T10:54:44.742Z,8.20
2023-02-23T10:57:14.218Z,8.40
2023-02-23T10:59:43.826Z,8.40
2023-02-23T11:02:23.329Z,8.50
2023-02-23T11:04:53.049Z,8.50
2023-02-23T11:07:30.361Z,8.50
2023-02-23T11:09:57.959Z,8.60
2023-02-23T11:12:28.533Z,8.60
2023-02-23T11:14:57.014Z,8.70
2023-02-23T11:17:25.289Z,8.80
2023-02-23T11:19:58.685Z,8.80
2023-02-23T11:22:27.153Z,8.80
2023-02-23T11:24:55.560Z,8.90
2023-02-23T11:27:26.548Z,9.00
2023-02-23T11:29:55.654Z,9.20
2023-02-23T11:32:33.164Z,9.10
2023-02-23T11:35:27.268Z,9.20
2023-02-23T11:37:54.531Z,9.20
2023-02-23T11:40:21.224Z,9.30
2023-02-23T11:43:12.655Z,9.30
2023-02-23T11:45:45.211Z,9.40
2023-02-23T11:48:20.837Z,9.50
2023-02-23T11:50:48.558Z,9.60
2023-02-23T11:53:17.379Z,9.80
2023-02-23T11:55:54.743Z,9.80
2023-02-23T11:58:27.860Z,9.90
2023-02-23T12:00:55.748Z,9.90
2023-02-23T12:03:23.739Z,10.00
2023-02-23T12:05:53.220Z,10.00
2023-02-23T12:08:27.545Z,10.10
2023-02-23T12:10:57.762Z,10.20
2023-02-23T12:13:30.829Z,10.30
2023-02-23T12:16:16.445Z,10.40
2023-02-23T12:19:01.993Z,10.40
2023-02-23T12:21:28.686Z,10.40
2023-02-23T12:24:00.967Z,10.40
2023-02-23T12:26:28.498Z,10.50
2023-02-23T12:29:02.487Z,10.50
2023-02-23T12:31:32.188Z,10.50
2023-02-23T12:34:01.572Z,10.40
2023-02-23T12:36:47.113Z,10.50
2023-02-23T12:39:18.113Z,10.50
2023-02-23T12:42:22.121Z,10.70
2023-02-23T12:44:52.482Z,10.70
2023-02-23T12:47:26.339Z,10.60
2023-02-23T12:49:57.508Z,10.60
2023-02-23T12:52:29.977Z,10.50
2023-02-23T12:54:57.717Z,10.60
2023-02-23T12:57:32.451Z,10.70
2023-02-23T13:00:20.291Z,10.70
2023-02-23T13:02:49.522Z,10.70
2023-02-23T13:05:39.637Z,10.60
2023-02-23T13:08:13.869Z,10.60
2023-02-23T13:10:46.641Z,10.70
2023-02-23T13:13:36.148Z,10.60
2023-02-23T13:16:02.752Z,10.60
2023-02-23T13:18:52.868Z,10.60
2023-02-23T13:21:23.955Z,10.50
2023-02-23T13:24:06.172Z,10.50
2023-02-23T13:26:46.503Z,10.40
2023-02-23T13:29:19.215Z,10.30
2023-02-23T13:31:46.428Z,10.30
2023-02-23T13:34:18.173Z,10.30
2023-02-23T13:36:45.923Z,10.30
2023-02-23T13:39:27.956Z,10.30
2023-02-23T13:42:05.187Z,10.20
2023-02-23T13:44:31.837Z,10.20
2023-02-23T13:47:10.727Z,10.20
2023-02-23T13:49:40.088Z,10.10
2023-02-23T13:52:25.899Z,10.00
2023-02-23T13:54:56.462Z,9.90
2023-02-23T13:57:23.757Z,9.90
2023-02-23T13:59:50.858Z,9.90
2023-02-23T14:02:23.956Z,9.90
2023-02-23T14:04:50.865Z,9.90
2023-02-23T14:07:23.248Z,9.80
2023-02-23T14:09:54.321Z,9.80
2023-02-23T14:12:25.978Z,9.80
2023-02-23T14:14:52.743Z,9.80
2023-02-23T14:17:19.369Z,9.80
2023-02-23T14:19:45.984Z,9.80
2023-02-23T14:22:14.497Z,9.90
2023-02-23T14:24:41.142Z,9.90
2023-02-23T14:27:10.766Z,9.80
2023-02-23T14:29:42.001Z,9.80
2023-02-23T14:32:11.840Z,9.70
2023-02-23T14:34:53.320Z,9.70
2023-02-23T14:37:22.097Z,9.80
2023-02-23T14:39:49.942Z,9.80
2023-02-23T14:42:21.368Z,9.70
2023-02-23T14:44:51.490Z,9.70
2023-02-23T14:47:22.212Z,9.70
2023-02-23T14:50:00.250Z,9.60
2023-02-23T14:52:28.700Z,9.60
2023-02-23T14:55:24.731Z,9.50
2023-02-23T14:57:52.600Z,9.50
2023-02-23T15:00:33.309Z,9.40
2023-02-23T15:03:05.027Z,9.40
2023-02-23T15:05:34.160Z,9.40
2023-02-23T15:08:03.086Z,9.30
2023-02-23T15:10:40.577Z,9.30
2023-02-23T15:13:29.137Z,9.30
2023-02-23T15:16:02.873Z,9.20
2023-02-23T15:18:32.576Z,9.10
2023-02-23T15:20:59.290Z,9.10
2023-02-23T15:23:26.215Z,9.00
2023-02-23T15:25:52.972Z,9.00
2023-02-23T15:28:26.978Z,9.00
2023-02-23T15:30:54.917Z,9.00
2023-02-23T15:33:28.404Z,9.00
2023-02-23T15:35:56.828Z,9.00
2023-02-23T15:38:43.945Z,9.00
2023-02-23T15:41:26.389Z,9.00
2023-02-23T15:43:53.125Z,9.00
2023-02-23T15:46:25.401Z,9.00
2023-02-23T15:48:53.434Z,9.00
2023-02-23T15:51:39.113Z,8.90
2023-02-23T15:54:16.454Z,8.90
2023-02-23T15:56:46.876Z,8.90
2023-02-23T15:59:21.834Z,8.70
2023-02-23T16:01:48.649Z,8.60
2023-02-23T16:04:15.429Z,8.70
2023-02-23T16:06:49.495Z,8.70
2023-02-23T16:09:24.118Z,8.70
2023-02-23T16:11:56.228Z,8.70
2023-02-23T16:14:23.801Z,8.60
2023-02-23T16:17:08.354Z,8.40
2023-02-23T16:19:41.059Z,8.20
2023-02-23T16:22:13.987Z,8.30
2023-02-23T16:24:40.668Z,8.40
2023-02-23T16:27:07.491Z,8.40
2023-02-23T16:29:41.542Z,8.20
2023-02-23T16:32:16.991Z,8.00
2023-02-23T16:35:12.263Z,8.00
2023-02-23T16:38:00.829Z,8.00
2023-02-23T16:40:27.879Z,8.10
2023-02-23T16:42:59.655Z,8.00
2023-02-23T16:45:26.918Z,8.00
2023-02-23T16:47:53.666Z,8.00
2023-02-23T16:50:21.854Z,7.90
2023-02-23T16:52:52.567Z,7.90
2023-02-23T16:55:25.414Z,7.80
2023-02-23T16:57:54.040Z,7.40
2023-02-23T17:00:23.522Z,7.20
2023-02-23T17:02:50.939Z,7.10
2023-02-23T17:05:19.348Z,7.10
2023-02-23T17:07:46.413Z,7.00
2023-02-23T17:10:25.050Z,6.80
2023-02-23T17:12:52.900Z,6.60
2023-02-23T17:15:19.893Z,6.30
2023-02-23T17:17:46.549Z,6.10
2023-02-23T17:20:17.423Z,5.80
2023-02-23T17:22:44.349Z,5.50
2023-02-23T17:25:11.023Z,5.30
2023-02-23T17:27:37.719Z,5.40
2023-02-23T17:30:05.360Z,5.30
2023-02-23T17:32:32.700Z,5.40
2023-02-23T17:34:59.449Z,5.60
2023-02-23T17:37:26.106Z,5.80
2023-02-23T17:39:52.781Z,5.70
2023-02-23T17:42:19.463Z,5.50
2023-02-23T17:44:46.195Z,5.40
2023-02-23T17:47:12.867Z,5.40
2023-02-23T17:49:39.783Z,5.30
2023-02-23T17:52:06.478Z,5.30
2023-02-23T17:54:33.150Z,5.50
2023-02-23T17:56:59.833Z,5.50
2023-02-23T17:59:26.479Z,5.50
2023-02-23T18:01:53.268Z,5.30
2023-02-23T18:04:19.957Z,5.10
2023-02-23T18:07:07.592Z,5.20
2023-02-23T18:09:35.168Z,5.20
2023-02-23T18:12:01.919Z,5.00
2023-02-23T18:14:28.589Z,5.00
2023-02-23T18:16:55.453Z,4.80
2023-02-23T18:19:22.160Z,4.70
2023-02-23T18:21:48.806Z,4.80
2023-02-23T18:24:15.883Z,4.80
2023-02-23T18:26:42.565Z,4.80
2023-02-23T18:29:09.237Z,4.90
2023-02-23T18:31:36.107Z,4.70
2023-02-23T18:34:02.864Z,4.20
2023-02-23T18:36:31.311Z,4.20
2023-02-23T18:38:58.678Z,3.80
2023-02-23T18:41:30.712Z,3.70
2023-02-23T18:43:58.271Z,4.00
2023-02-23T18:46:24.990Z,3.80
2023-02-23T18:48:51.934Z,3.60
2023-02-23T18:51:19.491Z,3.50
2023-02-23T18:53:46.445Z,3.40
2023-02-23T18:56:14.879Z,3.30
2023-02-23T18:58:44.607Z,3.30
2023-02-23T19:01:19.237Z,3.60
2023-02-23T19:03:48.814Z,3.50
2023-02-23T19:06:16.190Z,3.50
2023-02-23T19:08:43.563Z,3.50
2023-02-23T19:11:13.565Z,3.40
2023-02-23T19:13:40.309Z,3.20
2023-02-23T19:16:07.715Z,3.30
2023-02-23T19:18:35.637Z,3.30
2023-02-23T19:21:03.242Z,3.30
2023-02-23T19:23:30.614Z,3.30
2023-02-23T19:26:21.254Z,3.20
2023-02-23T19:28:48.364Z,2.80
2023-02-23T19:31:19.483Z,2.70
2023-02-23T19:33:48.217Z,2.90
2023-02-23T19:36:16.157Z,2.90
2023-02-23T19:38:42.976Z,2.70
2023-02-23T19:41:11.307Z,2.90
2023-02-23T19:43:38.361Z,3.00
2023-02-23T19:46:05.999Z,3.20
2023-02-23T19:48:33.155Z,3.00
2023-02-23T19:50:59.991Z,3.00
2023-02-23T19:53:28.083Z,2.80
2023-02-23T19:56:08.613Z,2.70
2023-02-23T19:58:35.502Z,3.00
2023-02-23T20:01:05.969Z,2.90
2023-02-23T20:03:32.830Z,2.90
2023-02-23T20:05:59.651Z,2.90
2023-02-23T20:08:26.588Z,2.90
2023-02-23T20:10:53.301Z,2.90
2023-02-23T20:13:21.438Z,2.90
2023-02-23T20:15:48.137Z,2.90
2023-02-23T20:18:14.799Z,3.00
2023-02-23T20:20:41.704Z,3.00
2023-02-23T20:23:08.841Z,3.10
2023-02-23T20:25:36.184Z,3.10
2023-02-23T20:28:03.334Z,3.20
2023-02-23T20:30:30.199Z,3.30
2023-02-23T20:32:57.400Z,3.30
2023-02-23T20:35:26.301Z,3.30
2023-02-23T20:37:53.569Z,3.30
2023-02-23T20:40:22.881Z,3.40
2023-02-23T20:42:50.552Z,3.40
2023-02-23T20:45:20.798Z,3.40
2023-02-23T20:47:47.617Z,3.30
2023-02-23T20:50:14.422Z,3.30
2023-02-23T20:52:41.636Z,3.40
2023-02-23T20:55:09.038Z,3.30
2023-02-23T20:57:36.114Z,3.40
2023-02-23T21:00:09.423Z,3.40
2023-02-23T21:02:36.882Z,3.40
2023-02-23T21:05:03.698Z,3.50
2023-02-23T21:07:30.580Z,3.60
2023-02-23T21:10:00.134Z,3.50
2023-02-23T21:12:27.157Z,3.60
2023-02-23T21:14:54.021Z,3.80
2023-02-23T21:17:20.708Z,3.80
2023-02-23T21:19:47.445Z,3.60
2023-02-23T21:22:16.348Z,3.50
2023-02-23T21:24:43.791Z,3.60
2023-02-23T21:27:12.731Z,3.70
2023-02-23T21:29:40.173Z,3.70
2023-02-23T21:32:08.856Z,3.90
2023-02-23T21:34:36.008Z,3.90
2023-02-23T21:37:02.714Z,3.80
2023-02-23T21:39:29.715Z,3.90
2023-02-23T21:41:56.751Z,3.90
2023-02-23T21:44:23.941Z,3.80
2023-02-23T21:46:51.599Z,3.80
2023-02-23T21:49:19.048Z,3.80
2023-02-23T21:51:45.734Z,3.80
2023-02-23T21:54:12.627Z,3.90
2023-02-23T21:56:39.355Z,4.10
2023-02-23T21:59:08.197Z,4.10
2023-02-23T22:01:35.977Z,4.00
2023-02-23T22:04:03.820Z,3.90
2023-02-23T22:06:34.227Z,3.90
2023-02-23T22:09:00.898Z,4.00
2023-02-23T22:11:28.365Z,4.10
2023-02-23T22:13:59.362Z,4.10
2023-02-23T22:16:28.117Z,4.10
2023-02-23T22:18:54.803Z,4.00
2023-02-23T22:21:22.807Z,4.00
2023-02-23T22:23:50.248Z,4.00
2023-02-23T22:26:17.735Z,4.00
2023-02-23T22:28:44.451Z,4.00
2023-02-23T22:31:12.274Z,3.90
2023-02-23T22:33:41.591Z,4.00
2023-02-23T22:36:12.986Z,4.00
2023-02-23T22:38:40.719Z,4.10
2023-02-23T22:41:09.954Z,4.10
2023-02-23T22:43:40.638Z,4.10
2023-02-23T22:46:08.002Z,4.10
2023-02-23T22:48:35.433Z,4.00
2023-02-23T22:51:02.408Z,4.00
2023-02-23T22:53:29.128Z,4.00
2023-02-23T22:55:56.032Z,4.10
2023-02-23T22:58:23.740Z,4.20
2023-02-23T23:01:02.980Z,4.20
2023-02-23T23:03:37.329Z,4.10
2023-02-23T23:06:05.430Z,4.00
2023-02-23T23:08:36.478Z,4.10
2023-02-23T23:11:04.562Z,4.00
2023-02-23T23:13:32.073Z,4.10
2023-02-23T23:16:07.706Z,4.10
2023-02-23T23:18:36.076Z,4.00
2023-02-23T23:21:02.750Z,4.00
2023-02-23T23:23:29.404Z,4.00
2023-02-23T23:25:56.057Z,4.10
2023-02-23T23:28:24.414Z,4.10
2023-02-23T23:30:52.187Z,4.10
2023-02-23T23:33:19.088Z,4.00
2023-02-23T23:35:45.830Z,4.10
2023-02-23T23:38:14.404Z,4.20
2023-02-23T23:40:46.959Z,4.00
2023-02-23T23:43:14.008Z,3.90
2023-02-23T23:45:42.241Z,4.00
2023-02-23T23:48:09.519Z,4.00
2023-02-23T23:50:36.357Z,4.00
2023-02-23T23:53:04.532Z,4.10
2023-02-23T23:55:31.628Z,4.10
2023-02-23T23:58:00.192Z,4.10
